sensor_id;sensor_type;location;lat;lon;timestamp;pressure;altitude;pressure_sealevel;temperature;humidity
8069;BME280;4077;43.702;24.896;2023-02-15T00:00:14;100816.53;;;1.20;100.00
8069;BME280;4077;43.702;24.896;2023-02-15T00:02:40;100814.97;;;1.22;100.00
8069;BME280;4077;43.702;24.896;2023-02-15T00:05:06;100811.47;;;1.08;100.00
8069;BME280;4077;43.702;24.896;2023-02-15T00:07:32;100811.06;;;0.91;100.00
8069;BME280;4077;43.702;24.896;2023-02-15T00:09:57;100805.53;;;0.73;100.00
8069;BME280;4077;43.702;24.896;2023-02-15T00:12:23;100814.81;;;0.61;100.00
8069;BME280;4077;43.702;24.896;2023-02-15T00:14:48;100811.63;;;0.51;100.00
8069;BME280;4077;43.702;24.896;2023-02-15T00:17:14;100810.19;;;0.43;100.00
8069;BME280;4077;43.702;24.896;2023-02-15T00:19:40;100806.31;;;0.37;100.00
8069;BME280;4077;43.702;24.896;2023-02-15T00:22:06;100804.56;;;0.36;100.00
8069;BME280;4077;43.702;24.896;2023-02-15T00:24:32;100797.38;;;0.30;100.00
8069;BME280;4077;43.702;24.896;2023-02-15T00:26:58;100810.41;;;0.35;100.00
8069;BME280;4077;43.702;24.896;2023-02-15T00:29:23;100805.97;;;0.32;100.00
8069;BME280;4077;43.702;24.896;2023-02-15T00:31:49;100818.13;;;0.36;100.00
8069;BME280;4077;43.702;24.896;2023-02-15T00:34:20;100814.56;;;0.34;100.00
8069;BME280;4077;43.702;24.896;2023-02-15T00:36:46;100824.06;;;0.25;100.00
8069;BME280;4077;43.702;24.896;2023-02-15T00:39:12;100821.84;;;0.18;100.00
8069;BME280;4077;43.702;24.896;2023-02-15T00:41:38;100828.56;;;0.06;100.00
8069;BME280;4077;43.702;24.896;2023-02-15T00:44:04;100817.38;;;-0.08;100.00
8069;BME280;4077;43.702;24.896;2023-02-15T00:46:30;100812.84;;;-0.12;100.00
8069;BME280;4077;43.702;24.896;2023-02-15T00:48:55;100808.72;;;-0.22;100.00
8069;BME280;4077;43.702;24.896;2023-02-15T00:51:21;100796.50;;;-0.49;100.00
8069;BME280;4077;43.702;24.896;2023-02-15T00:53:46;100813.25;;;-0.51;100.00
8069;BME280;4077;43.702;24.896;2023-02-15T00:56:12;100807.22;;;-0.64;100.00
8069;BME280;4077;43.702;24.896;2023-02-15T00:58:38;100804.78;;;-0.74;100.00
8069;BME280;4077;43.702;24.896;2023-02-15T01:01:06;100805.41;;;-0.76;100.00
8069;BME280;4077;43.702;24.896;2023-02-15T01:03:32;100799.50;;;-0.87;100.00
8069;BME280;4077;43.702;24.896;2023-02-15T01:05:57;100800.28;;;-0.88;100.00
8069;BME280;4077;43.702;24.896;2023-02-15T01:08:23;100792.09;;;-0.96;100.00
8069;BME280;4077;43.702;24.896;2023-02-15T01:10:48;100787.66;;;-0.98;100.00
8069;BME280;4077;43.702;24.896;2023-02-15T01:13:16;100785.66;;;-1.02;100.00
8069;BME280;4077;43.702;24.896;2023-02-15T01:15:42;100796.69;;;-1.02;100.00
8069;BME280;4077;43.702;24.896;2023-02-15T01:18:07;100793.78;;;-1.06;100.00
8069;BME280;4077;43.702;24.896;2023-02-15T01:20:35;100780.72;;;-1.11;100.00
8069;BME280;4077;43.702;24.896;2023-02-15T01:23:05;100783.94;;;-1.14;100.00
8069;BME280;4077;43.702;24.896;2023-02-15T01:25:32;100794.81;;;-1.15;100.00
8069;BME280;4077;43.702;24.896;2023-02-15T01:27:58;100790.53;;;-1.16;100.00
8069;BME280;4077;43.702;24.896;2023-02-15T01:30:23;100790.81;;;-1.23;100.00
8069;BME280;4077;43.702;24.896;2023-02-15T01:32:49;100793.75;;;-1.28;100.00
8069;BME280;4077;43.702;24.896;2023-02-15T01:35:14;100791.72;;;-1.32;100.00
8069;BME280;4077;43.702;24.896;2023-02-15T01:37:39;100792.75;;;-1.30;100.00
8069;BME280;4077;43.702;24.896;2023-02-15T01:40:07;100783.72;;;-1.27;100.00
8069;BME280;4077;43.702;24.896;2023-02-15T01:42:33;100774.63;;;-1.35;100.00
8069;BME280;4077;43.702;24.896;2023-02-15T01:45:03;100785.38;;;-1.27;100.00
8069;BME280;4077;43.702;24.896;2023-02-15T01:47:32;100779.59;;;-1.36;100.00
8069;BME280;4077;43.702;24.896;2023-02-15T01:52:29;100767.31;;;-1.42;100.00
8069;BME280;4077;43.702;24.896;2023-02-15T01:54:54;100774.03;;;-1.43;100.00
8069;BME280;4077;43.702;24.896;2023-02-15T01:57:23;100769.19;;;-1.40;100.00
8069;BME280;4077;43.702;24.896;2023-02-15T01:59:54;100764.50;;;-1.35;100.00
8069;BME280;4077;43.702;24.896;2023-02-15T02:02:21;100743.88;;;-1.40;100.00
8069;BME280;4077;43.702;24.896;2023-02-15T02:04:54;100758.16;;;-1.30;100.00
8069;BME280;4077;43.702;24.896;2023-02-15T02:07:27;100758.41;;;-1.27;100.00
8069;BME280;4077;43.702;24.896;2023-02-15T02:09:54;100766.59;;;-1.19;100.00
8069;BME280;4077;43.702;24.896;2023-02-15T02:12:21;100752.81;;;-1.23;100.00
8069;BME280;4077;43.702;24.896;2023-02-15T02:14:48;100764.66;;;-1.12;100.00
8069;BME280;4077;43.702;24.896;2023-02-15T02:17:24;100777.81;;;-1.05;100.00
8069;BME280;4077;43.702;24.896;2023-02-15T02:33:47;100790.72;;;-1.02;100.00
8069;BME280;4077;43.702;24.896;2023-02-15T02:39:30;100787.34;;;-1.13;100.00
8069;BME280;4077;43.702;24.896;2023-02-15T02:44:47;100790.88;;;-1.11;100.00
8069;BME280;4077;43.702;24.896;2023-02-15T02:47:30;100789.69;;;-1.04;100.00
8069;BME280;4077;43.702;24.896;2023-02-15T02:50:05;100782.66;;;-1.08;100.00
8069;BME280;4077;43.702;24.896;2023-02-15T02:52:48;100788.00;;;-1.16;100.00
8069;BME280;4077;43.702;24.896;2023-02-15T02:58:00;100796.38;;;-1.17;100.00
8069;BME280;4077;43.702;24.896;2023-02-15T03:00:32;100799.53;;;-1.19;100.00
8069;BME280;4077;43.702;24.896;2023-02-15T03:03:12;100798.25;;;-1.24;100.00
8069;BME280;4077;43.702;24.896;2023-02-15T03:05:44;100803.75;;;-1.30;100.00
8069;BME280;4077;43.702;24.896;2023-02-15T03:08:14;100811.34;;;-1.30;100.00
8069;BME280;4077;43.702;24.896;2023-02-15T03:10:48;100808.56;;;-1.33;100.00
8069;BME280;4077;43.702;24.896;2023-02-15T03:13:15;100797.72;;;-1.42;100.00
8069;BME280;4077;43.702;24.896;2023-02-15T03:15:41;100795.97;;;-1.53;100.00
8069;BME280;4077;43.702;24.896;2023-02-15T03:18:35;100800.91;;;-1.55;100.00
8069;BME280;4077;43.702;24.896;2023-02-15T03:21:03;100802.16;;;-1.50;100.00
8069;BME280;4077;43.702;24.896;2023-02-15T03:23:30;100798.63;;;-1.62;100.00
8069;BME280;4077;43.702;24.896;2023-02-15T03:26:01;100807.34;;;-1.58;100.00
8069;BME280;4077;43.702;24.896;2023-02-15T03:28:44;100804.84;;;-1.69;100.00
8069;BME280;4077;43.702;24.896;2023-02-15T03:31:12;100798.78;;;-1.71;100.00
8069;BME280;4077;43.702;24.896;2023-02-15T03:33:44;100795.72;;;-1.67;100.00
8069;BME280;4077;43.702;24.896;2023-02-15T03:41:50;100808.38;;;-1.56;100.00
8069;BME280;4077;43.702;24.896;2023-02-15T03:44:46;100797.72;;;-1.52;100.00
8069;BME280;4077;43.702;24.896;2023-02-15T03:47:25;100801.41;;;-1.49;100.00
8069;BME280;4077;43.702;24.896;2023-02-15T03:49:59;100794.16;;;-1.44;100.00
8069;BME280;4077;43.702;24.896;2023-02-15T03:52:28;100793.75;;;-1.39;100.00
8069;BME280;4077;43.702;24.896;2023-02-15T03:54:54;100795.78;;;-1.34;100.00
8069;BME280;4077;43.702;24.896;2023-02-15T03:57:24;100800.94;;;-1.23;100.00
8069;BME280;4077;43.702;24.896;2023-02-15T04:00:16;100801.44;;;-1.17;100.00
8069;BME280;4077;43.702;24.896;2023-02-15T04:03:24;100807.97;;;-1.08;100.00
8069;BME280;4077;43.702;24.896;2023-02-15T04:05:55;100803.69;;;-1.20;100.00
8069;BME280;4077;43.702;24.896;2023-02-15T04:08:20;100825.44;;;-1.12;100.00
8069;BME280;4077;43.702;24.896;2023-02-15T04:11:05;100825.72;;;-1.08;100.00
8069;BME280;4077;43.702;24.896;2023-02-15T04:13:32;100825.16;;;-1.04;100.00
8069;BME280;4077;43.702;24.896;2023-02-15T04:15:57;100828.59;;;-1.04;100.00
8069;BME280;4077;43.702;24.896;2023-02-15T04:18:40;100834.91;;;-0.99;100.00
8069;BME280;4077;43.702;24.896;2023-02-15T04:21:26;100833.25;;;-0.98;100.00
8069;BME280;4077;43.702;24.896;2023-02-15T04:24:11;100841.25;;;-0.94;100.00
8069;BME280;4077;43.702;24.896;2023-02-15T04:26:56;100846.53;;;-0.91;100.00
8069;BME280;4077;43.702;24.896;2023-02-15T04:29:22;100836.00;;;-0.85;100.00
8069;BME280;4077;43.702;24.896;2023-02-15T04:31:49;100845.34;;;-0.74;100.00
8069;BME280;4077;43.702;24.896;2023-02-15T04:34:14;100849.63;;;-0.73;100.00
8069;BME280;4077;43.702;24.896;2023-02-15T04:36:40;100842.78;;;-0.74;100.00
8069;BME280;4077;43.702;24.896;2023-02-15T04:39:06;100853.94;;;-0.72;100.00
8069;BME280;4077;43.702;24.896;2023-02-15T04:41:32;100860.75;;;-0.71;100.00
8069;BME280;4077;43.702;24.896;2023-02-15T04:43:58;100854.94;;;-0.70;100.00
8069;BME280;4077;43.702;24.896;2023-02-15T04:46:25;100859.88;;;-0.71;100.00
8069;BME280;4077;43.702;24.896;2023-02-15T04:48:51;100855.34;;;-0.75;100.00
8069;BME280;4077;43.702;24.896;2023-02-15T04:51:16;100864.94;;;-0.71;100.00
8069;BME280;4077;43.702;24.896;2023-02-15T04:53:42;100868.75;;;-0.66;100.00
8069;BME280;4077;43.702;24.896;2023-02-15T04:56:07;100867.84;;;-0.67;100.00
8069;BME280;4077;43.702;24.896;2023-02-15T04:58:33;100875.97;;;-0.71;100.00
8069;BME280;4077;43.702;24.896;2023-02-15T05:00:58;100881.34;;;-0.78;100.00
8069;BME280;4077;43.702;24.896;2023-02-15T05:03:24;100883.59;;;-0.71;100.00
8069;BME280;4077;43.702;24.896;2023-02-15T05:05:50;100867.59;;;-0.70;100.00
8069;BME280;4077;43.702;24.896;2023-02-15T05:08:16;100885.00;;;-0.74;100.00
8069;BME280;4077;43.702;24.896;2023-02-15T05:10:42;100873.50;;;-0.81;100.00
8069;BME280;4077;43.702;24.896;2023-02-15T05:13:07;100890.31;;;-0.71;100.00
8069;BME280;4077;43.702;24.896;2023-02-15T05:15:33;100881.22;;;-0.79;100.00
8069;BME280;4077;43.702;24.896;2023-02-15T05:17:58;100894.72;;;-0.69;100.00
8069;BME280;4077;43.702;24.896;2023-02-15T05:20:24;100892.47;;;-0.76;100.00
8069;BME280;4077;43.702;24.896;2023-02-15T05:22:53;100903.34;;;-0.67;100.00
8069;BME280;4077;43.702;24.896;2023-02-15T05:25:18;100912.13;;;-0.73;100.00
8069;BME280;4077;43.702;24.896;2023-02-15T05:28:02;100914.78;;;-0.72;100.00
8069;BME280;4077;43.702;24.896;2023-02-15T05:31:31;100917.19;;;-0.73;100.00
8069;BME280;4077;43.702;24.896;2023-02-15T05:33:49;100913.41;;;-0.78;100.00
8069;BME280;4077;43.702;24.896;2023-02-15T05:36:15;100908.59;;;-0.75;100.00
8069;BME280;4077;43.702;24.896;2023-02-15T05:38:40;100919.06;;;-0.71;100.00
8069;BME280;4077;43.702;24.896;2023-02-15T05:41:07;100921.50;;;-0.72;100.00
8069;BME280;4077;43.702;24.896;2023-02-15T05:43:33;100910.00;;;-0.79;100.00
8069;BME280;4077;43.702;24.896;2023-02-15T05:45:59;100918.75;;;-0.86;100.00
8069;BME280;4077;43.702;24.896;2023-02-15T05:48:26;100914.06;;;-0.81;100.00
8069;BME280;4077;43.702;24.896;2023-02-15T05:51:05;100924.19;;;-0.81;100.00
8069;BME280;4077;43.702;24.896;2023-02-15T05:53:33;100926.53;;;-0.94;100.00
8069;BME280;4077;43.702;24.896;2023-02-15T05:56:00;100926.03;;;-1.00;100.00
8069;BME280;4077;43.702;24.896;2023-02-15T05:58:26;100931.31;;;-0.97;100.00
8069;BME280;4077;43.702;24.896;2023-02-15T06:00:52;100927.13;;;-0.97;100.00
8069;BME280;4077;43.702;24.896;2023-02-15T06:03:18;100923.22;;;-0.93;100.00
8069;BME280;4077;43.702;24.896;2023-02-15T06:05:43;100931.66;;;-0.83;100.00
8069;BME280;4077;43.702;24.896;2023-02-15T06:08:09;100942.16;;;-0.78;100.00
8069;BME280;4077;43.702;24.896;2023-02-15T06:10:34;100936.09;;;-0.80;100.00
8069;BME280;4077;43.702;24.896;2023-02-15T06:13:00;100934.34;;;-0.81;100.00
8069;BME280;4077;43.702;24.896;2023-02-15T06:15:25;100939.53;;;-0.79;100.00
8069;BME280;4077;43.702;24.896;2023-02-15T06:17:51;100942.94;;;-0.79;100.00
8069;BME280;4077;43.702;24.896;2023-02-15T06:20:17;100944.72;;;-0.78;100.00
8069;BME280;4077;43.702;24.896;2023-02-15T06:22:42;100956.63;;;-0.77;100.00
8069;BME280;4077;43.702;24.896;2023-02-15T06:25:08;100938.75;;;-0.78;100.00
8069;BME280;4077;43.702;24.896;2023-02-15T06:27:35;100956.06;;;-0.63;100.00
8069;BME280;4077;43.702;24.896;2023-02-15T06:30:02;100955.66;;;-0.57;100.00
8069;BME280;4077;43.702;24.896;2023-02-15T06:32:27;100959.94;;;-0.46;100.00
8069;BME280;4077;43.702;24.896;2023-02-15T06:34:53;100953.69;;;-0.39;100.00
8069;BME280;4077;43.702;24.896;2023-02-15T06:37:18;100958.97;;;-0.26;100.00
8069;BME280;4077;43.702;24.896;2023-02-15T06:39:44;100959.66;;;-0.17;100.00
8069;BME280;4077;43.702;24.896;2023-02-15T06:42:09;100962.44;;;-0.14;100.00
8069;BME280;4077;43.702;24.896;2023-02-15T06:44:35;100962.03;;;-0.08;100.00
8069;BME280;4077;43.702;24.896;2023-02-15T06:47:00;100967.16;;;0.04;100.00
8069;BME280;4077;43.702;24.896;2023-02-15T06:49:26;100961.38;;;0.16;100.00
8069;BME280;4077;43.702;24.896;2023-02-15T06:51:51;100978.03;;;0.35;100.00
8069;BME280;4077;43.702;24.896;2023-02-15T06:54:16;100966.53;;;0.40;100.00
8069;BME280;4077;43.702;24.896;2023-02-15T06:56:42;100975.66;;;0.60;100.00
8069;BME280;4077;43.702;24.896;2023-02-15T06:59:08;100967.09;;;0.69;100.00
8069;BME280;4077;43.702;24.896;2023-02-15T07:01:34;100978.03;;;0.80;100.00
8069;BME280;4077;43.702;24.896;2023-02-15T07:04:02;100967.53;;;0.87;100.00
8069;BME280;4077;43.702;24.896;2023-02-15T07:06:31;100973.06;;;0.93;100.00
8069;BME280;4077;43.702;24.896;2023-02-15T07:08:56;100981.94;;;0.98;100.00
8069;BME280;4077;43.702;24.896;2023-02-15T07:11:22;100982.03;;;1.23;100.00
8069;BME280;4077;43.702;24.896;2023-02-15T07:14:06;100987.09;;;2.68;100.00
8069;BME280;4077;43.702;24.896;2023-02-15T07:16:31;101008.88;;;5.22;100.00
8069;BME280;4077;43.702;24.896;2023-02-15T07:18:57;101024.97;;;6.77;90.92
8069;BME280;4077;43.702;24.896;2023-02-15T07:21:22;101031.19;;;8.60;81.41
8069;BME280;4077;43.702;24.896;2023-02-15T07:23:48;101049.19;;;9.82;62.50
8069;BME280;4077;43.702;24.896;2023-02-15T07:26:13;101040.44;;;9.79;60.96
8069;BME280;4077;43.702;24.896;2023-02-15T07:28:39;101046.03;;;10.12;58.47
8069;BME280;4077;43.702;24.896;2023-02-15T07:31:04;101048.91;;;10.42;57.08
8069;BME280;4077;43.702;24.896;2023-02-15T07:33:31;101053.34;;;11.43;56.11
8069;BME280;4077;43.702;24.896;2023-02-15T07:35:59;101044.56;;;11.91;50.82
8069;BME280;4077;43.702;24.896;2023-02-15T07:38:30;101053.78;;;10.57;53.19
8069;BME280;4077;43.702;24.896;2023-02-15T07:41:00;101039.53;;;9.56;56.26
8069;BME280;4077;43.702;24.896;2023-02-15T07:43:27;101030.59;;;8.66;57.87
8069;BME280;4077;43.702;24.896;2023-02-15T07:45:52;101024.28;;;8.22;59.37
8069;BME280;4077;43.702;24.896;2023-02-15T07:48:18;101021.81;;;8.23;59.42
8069;BME280;4077;43.702;24.896;2023-02-15T07:50:43;101031.06;;;8.20;60.26
8069;BME280;4077;43.702;24.896;2023-02-15T07:53:09;101027.31;;;8.50;59.14
8069;BME280;4077;43.702;24.896;2023-02-15T07:55:34;101045.88;;;9.64;58.48
8069;BME280;4077;43.702;24.896;2023-02-15T07:58:00;101046.97;;;10.83;55.45
8069;BME280;4077;43.702;24.896;2023-02-15T08:00:26;101055.41;;;12.08;52.44
8069;BME280;4077;43.702;24.896;2023-02-15T08:02:54;101064.63;;;13.18;49.14
8069;BME280;4077;43.702;24.896;2023-02-15T08:05:43;101070.38;;;13.74;47.29
8069;BME280;4077;43.702;24.896;2023-02-15T08:08:10;101073.38;;;13.56;47.77
8069;BME280;4077;43.702;24.896;2023-02-15T08:11:14;101058.16;;;12.12;48.11
8069;BME280;4077;43.702;24.896;2023-02-15T08:14:14;101049.34;;;11.26;50.38
8069;BME280;4077;43.702;24.896;2023-02-15T08:19:18;101032.88;;;9.61;54.63
8069;BME280;4077;43.702;24.896;2023-02-15T08:21:47;101035.56;;;9.64;55.85
8069;BME280;4077;43.702;24.896;2023-02-15T08:24:14;101033.56;;;9.15;57.02
8069;BME280;4077;43.702;24.896;2023-02-15T08:26:40;101024.28;;;8.79;58.55
8069;BME280;4077;43.702;24.896;2023-02-15T08:29:07;101022.75;;;8.26;59.80
8069;BME280;4077;43.702;24.896;2023-02-15T08:31:33;101022.25;;;8.15;62.03
8069;BME280;4077;43.702;24.896;2023-02-15T08:33:59;101014.28;;;7.91;63.39
8069;BME280;4077;43.702;24.896;2023-02-15T08:36:26;101011.72;;;7.91;64.56
8069;BME280;4077;43.702;24.896;2023-02-15T08:38:52;101014.66;;;7.81;64.59
8069;BME280;4077;43.702;24.896;2023-02-15T08:41:22;101016.28;;;7.79;65.77
8069;BME280;4077;43.702;24.896;2023-02-15T08:43:51;101015.25;;;7.93;66.22
8069;BME280;4077;43.702;24.896;2023-02-15T08:46:18;101028.69;;;7.87;67.02
8069;BME280;4077;43.702;24.896;2023-02-15T08:48:44;101022.44;;;8.00;66.74
8069;BME280;4077;43.702;24.896;2023-02-15T08:51:12;101022.06;;;8.30;65.93
8069;BME280;4077;43.702;24.896;2023-02-15T08:53:40;101027.31;;;8.13;66.63
8069;BME280;4077;43.702;24.896;2023-02-15T08:56:07;101025.56;;;8.12;68.14
8069;BME280;4077;43.702;24.896;2023-02-15T08:58:33;101020.31;;;8.29;66.63
8069;BME280;4077;43.702;24.896;2023-02-15T09:00:59;101018.81;;;8.34;66.13
8069;BME280;4077;43.702;24.896;2023-02-15T09:03:27;101019.91;;;8.19;66.83
8069;BME280;4077;43.702;24.896;2023-02-15T09:06:00;101022.94;;;8.30;70.00
8069;BME280;4077;43.702;24.896;2023-02-15T09:08:26;101021.44;;;7.79;68.73
8069;BME280;4077;43.702;24.896;2023-02-15T09:10:52;101014.31;;;7.55;71.31
8069;BME280;4077;43.702;24.896;2023-02-15T09:13:18;101011.75;;;7.37;74.00
8069;BME280;4077;43.702;24.896;2023-02-15T09:15:43;101018.03;;;7.98;76.53
8069;BME280;4077;43.702;24.896;2023-02-15T09:18:09;101017.53;;;8.24;72.49
8069;BME280;4077;43.702;24.896;2023-02-15T09:20:35;101021.44;;;8.72;69.65
8069;BME280;4077;43.702;24.896;2023-02-15T09:23:01;101010.00;;;9.06;66.72
8069;BME280;4077;43.702;24.896;2023-02-15T09:25:27;101023.69;;;9.47;66.25
8069;BME280;4077;43.702;24.896;2023-02-15T09:27:53;101020.84;;;9.82;63.68
8069;BME280;4077;43.702;24.896;2023-02-15T09:30:18;101030.03;;;9.98;61.22
8069;BME280;4077;43.702;24.896;2023-02-15T09:32:44;101037.84;;;10.45;59.27
8069;BME280;4077;43.702;24.896;2023-02-15T09:35:11;101036.28;;;10.98;57.92
8069;BME280;4077;43.702;24.896;2023-02-15T09:37:37;101057.19;;;12.37;54.22
8069;BME280;4077;43.702;24.896;2023-02-15T09:40:03;101052.53;;;12.87;51.66
8069;BME280;4077;43.702;24.896;2023-02-15T09:45:25;101054.41;;;13.93;49.47
8069;BME280;4077;43.702;24.896;2023-02-15T09:56:33;101035.75;;;10.58;53.83
8069;BME280;4077;43.702;24.896;2023-02-15T10:01:56;101020.00;;;9.83;56.78
8069;BME280;4077;43.702;24.896;2023-02-15T10:18:36;100994.78;;;9.54;59.81
8069;BME280;4077;43.702;24.896;2023-02-15T10:21:36;100994.56;;;9.70;59.48
8069;BME280;4077;43.702;24.896;2023-02-15T10:24:06;100993.25;;;9.59;59.16
8069;BME280;4077;43.702;24.896;2023-02-15T10:26:46;100997.91;;;9.68;59.46
8069;BME280;4077;43.702;24.896;2023-02-15T10:29:22;100989.75;;;9.57;58.34
8069;BME280;4077;43.702;24.896;2023-02-15T10:32:04;100986.41;;;9.39;59.17
8069;BME280;4077;43.702;24.896;2023-02-15T10:34:38;100984.28;;;9.49;59.25
8069;BME280;4077;43.702;24.896;2023-02-15T10:37:56;100982.81;;;9.56;60.21
8069;BME280;4077;43.702;24.896;2023-02-15T10:45:28;100974.75;;;9.69;59.82
8069;BME280;4077;43.702;24.896;2023-02-15T10:50:52;100967.69;;;9.87;59.34
8069;BME280;4077;43.702;24.896;2023-02-15T10:56:31;100962.53;;;9.87;57.61
8069;BME280;4077;43.702;24.896;2023-02-15T11:01:55;100961.03;;;9.70;58.54
8069;BME280;4077;43.702;24.896;2023-02-15T11:06:56;100961.25;;;9.99;57.42
8069;BME280;4077;43.702;24.896;2023-02-15T11:09:25;100950.00;;;9.97;57.36
8069;BME280;4077;43.702;24.896;2023-02-15T11:11:56;100955.47;;;10.04;57.37
8069;BME280;4077;43.702;24.896;2023-02-15T11:17:12;100952.69;;;10.00;56.90
8069;BME280;4077;43.702;24.896;2023-02-15T11:19:54;100950.56;;;10.12;56.81
8069;BME280;4077;43.702;24.896;2023-02-15T11:22:21;100943.91;;;9.95;57.71
8069;BME280;4077;43.702;24.896;2023-02-15T11:24:47;100936.16;;;9.95;58.21
8069;BME280;4077;43.702;24.896;2023-02-15T11:27:26;100929.00;;;9.87;56.78
8069;BME280;4077;43.702;24.896;2023-02-15T11:29:58;100925.03;;;9.73;57.09
8069;BME280;4077;43.702;24.896;2023-02-15T11:32:44;100918.25;;;9.75;56.49
8069;BME280;4077;43.702;24.896;2023-02-15T11:37:43;100921.63;;;9.74;56.87
8069;BME280;4077;43.702;24.896;2023-02-15T11:40:33;100924.22;;;9.74;57.48
8069;BME280;4077;43.702;24.896;2023-02-15T11:43:13;100913.31;;;9.59;57.11
8069;BME280;4077;43.702;24.896;2023-02-15T11:45:42;100893.47;;;9.34;56.29
8069;BME280;4077;43.702;24.896;2023-02-15T11:48:11;100919.06;;;9.52;55.97
8069;BME280;4077;43.702;24.896;2023-02-15T11:50:37;100908.41;;;9.43;56.13
8069;BME280;4077;43.702;24.896;2023-02-15T11:53:09;100905.78;;;9.41;55.69
8069;BME280;4077;43.702;24.896;2023-02-15T11:55:36;100903.25;;;9.43;55.00
8069;BME280;4077;43.702;24.896;2023-02-15T12:00:52;100901.38;;;9.39;53.86
8069;BME280;4077;43.702;24.896;2023-02-15T12:03:27;100896.59;;;9.48;54.31
8069;BME280;4077;43.702;24.896;2023-02-15T12:05:58;100888.91;;;9.49;52.99
8069;BME280;4077;43.702;24.896;2023-02-15T12:08:34;100897.00;;;9.36;53.65
8069;BME280;4077;43.702;24.896;2023-02-15T12:11:11;100897.97;;;9.17;54.18
8069;BME280;4077;43.702;24.896;2023-02-15T12:14:00;100894.75;;;9.23;54.63
8069;BME280;4077;43.702;24.896;2023-02-15T12:16:27;100891.81;;;9.14;55.11
8069;BME280;4077;43.702;24.896;2023-02-15T12:18:56;100886.16;;;9.22;54.04
8069;BME280;4077;43.702;24.896;2023-02-15T12:23:58;100877.59;;;9.46;53.43
8069;BME280;4077;43.702;24.896;2023-02-15T12:26:28;100882.16;;;9.53;52.99
8069;BME280;4077;43.702;24.896;2023-02-15T12:29:00;100878.88;;;9.57;52.03
8069;BME280;4077;43.702;24.896;2023-02-15T12:31:41;100875.44;;;9.56;51.57
8069;BME280;4077;43.702;24.896;2023-02-15T12:34:19;100850.78;;;9.41;51.44
8069;BME280;4077;43.702;24.896;2023-02-15T12:36:49;100871.94;;;9.54;51.18
8069;BME280;4077;43.702;24.896;2023-02-15T12:39:21;100857.47;;;9.36;50.92
8069;BME280;4077;43.702;24.896;2023-02-15T12:42:14;100864.69;;;9.46;51.27
8069;BME280;4077;43.702;24.896;2023-02-15T12:44:56;100861.44;;;9.27;51.66
8069;BME280;4077;43.702;24.896;2023-02-15T12:47:22;100854.88;;;9.36;51.60
8069;BME280;4077;43.702;24.896;2023-02-15T12:52:32;100855.03;;;9.63;50.90
8069;BME280;4077;43.702;24.896;2023-02-15T12:55:11;100851.41;;;9.57;50.69
8069;BME280;4077;43.702;24.896;2023-02-15T12:57:42;100847.97;;;9.35;51.59
8069;BME280;4077;43.702;24.896;2023-02-15T13:02:52;100847.97;;;9.35;52.31
8069;BME280;4077;43.702;24.896;2023-02-15T13:05:39;100849.13;;;9.43;52.29
8069;BME280;4077;43.702;24.896;2023-02-15T13:08:28;100847.09;;;9.34;52.21
8069;BME280;4077;43.702;24.896;2023-02-15T13:11:10;100837.28;;;9.25;52.56
8069;BME280;4077;43.702;24.896;2023-02-15T13:13:56;100846.00;;;9.27;52.25
8069;BME280;4077;43.702;24.896;2023-02-15T13:16:37;100838.84;;;9.20;52.78
8069;BME280;4077;43.702;24.896;2023-02-15T13:21:55;100841.75;;;9.29;52.70
8069;BME280;4077;43.702;24.896;2023-02-15T13:24:41;100843.41;;;9.27;52.51
8069;BME280;4077;43.702;24.896;2023-02-15T13:27:13;100845.50;;;9.38;52.29
8069;BME280;4077;43.702;24.896;2023-02-15T13:29:43;100842.59;;;9.28;52.46
8069;BME280;4077;43.702;24.896;2023-02-15T13:32:30;100849.00;;;9.40;52.88
8069;BME280;4077;43.702;24.896;2023-02-15T13:34:59;100849.91;;;9.40;52.41
8069;BME280;4077;43.702;24.896;2023-02-15T13:39:58;100847.72;;;9.51;52.49
8069;BME280;4077;43.702;24.896;2023-02-15T13:53:22;100836.72;;;9.55;52.35
8069;BME280;4077;43.702;24.896;2023-02-15T14:09:47;100838.28;;;9.51;53.14
8069;BME280;4077;43.702;24.896;2023-02-15T14:13:19;100840.13;;;9.54;52.92
8069;BME280;4077;43.702;24.896;2023-02-15T14:19:03;100840.00;;;9.51;53.72
8069;BME280;4077;43.702;24.896;2023-02-15T14:21:42;100835.09;;;9.35;54.12
8069;BME280;4077;43.702;24.896;2023-02-15T14:31:56;100832.75;;;9.41;54.52
8069;BME280;4077;43.702;24.896;2023-02-15T14:34:59;100841.16;;;9.37;54.31
8069;BME280;4077;43.702;24.896;2023-02-15T14:37:42;100820.44;;;9.11;54.55
8069;BME280;4077;43.702;24.896;2023-02-15T14:46:06;100838.16;;;9.26;54.92
8069;BME280;4077;43.702;24.896;2023-02-15T14:48:53;100832.56;;;9.14;56.21
8069;BME280;4077;43.702;24.896;2023-02-15T14:56:45;100821.81;;;8.81;57.72
8069;BME280;4077;43.702;24.896;2023-02-15T15:01:37;100822.44;;;8.75;56.95
8069;BME280;4077;43.702;24.896;2023-02-15T15:04:31;100825.59;;;8.68;57.43
8069;BME280;4077;43.702;24.896;2023-02-15T15:09:33;100824.47;;;8.61;58.52
8069;BME280;4077;43.702;24.896;2023-02-15T15:14:44;100813.81;;;8.52;60.30
8069;BME280;4077;43.702;24.896;2023-02-15T15:22:49;100811.28;;;8.13;61.60
8069;BME280;4077;43.702;24.896;2023-02-15T15:28:06;100812.34;;;7.78;62.65
8069;BME280;4077;43.702;24.896;2023-02-15T15:32:59;100816.31;;;7.52;65.18
8069;BME280;4077;43.702;24.896;2023-02-15T15:35:36;100813.88;;;7.36;65.68
8069;BME280;4077;43.702;24.896;2023-02-15T15:44:19;100818.19;;;6.82;71.03
8069;BME280;4077;43.702;24.896;2023-02-15T15:47:22;100817.16;;;6.78;73.45
8069;BME280;4077;43.702;24.896;2023-02-15T15:49:56;100812.03;;;6.61;75.94
8069;BME280;4077;43.702;24.896;2023-02-15T15:52:22;100819.13;;;6.48;77.94
8069;BME280;4077;43.702;24.896;2023-02-15T15:54:51;100811.78;;;6.38;79.51
8069;BME280;4077;43.702;24.896;2023-02-15T15:57:33;100819.03;;;6.29;81.13
8069;BME280;4077;43.702;24.896;2023-02-15T16:00:00;100815.13;;;6.03;84.85
8069;BME280;4077;43.702;24.896;2023-02-15T16:02:26;100810.09;;;5.88;88.36
8069;BME280;4077;43.702;24.896;2023-02-15T16:04:52;100819.53;;;5.73;91.44
8069;BME280;4077;43.702;24.896;2023-02-15T16:09:59;100818.97;;;5.46;98.62
8069;BME280;4077;43.702;24.896;2023-02-15T16:12:27;100810.22;;;5.26;100.00